createdAt,value
2023-05-16T07:21:10.480Z,101805.00
2023-05-16T07:23:39.234Z,101813.00
2023-05-16T07:26:07.558Z,101790.00
2023-05-16T07:28:36.087Z,101761.00
2023-05-16T07:31:04.415Z,101792.00
2023-05-16T07:33:34.991Z,101812.00
2023-05-16T07:36:15.531Z,101816.00
2023-05-16T07:38:49.016Z,101817.00
2023-05-16T07:41:17.315Z,101822.00
2023-05-16T07:43:45.798Z,101797.00
2023-05-16T07:46:14.389Z,101803.00
2023-05-16T07:48:45.051Z,101804.00
2023-05-16T07:51:13.505Z,101791.00
2023-05-16T07:53:42.087Z,101826.00
2023-05-16T07:56:10.934Z,101824.00
2023-05-16T07:58:43.388Z,101788.00
2023-05-16T08:01:15.457Z,101781.00
2023-05-16T08:03:45.753Z,101816.00
2023-05-16T08:06:14.905Z,101808.00
2023-05-16T08:08:46.962Z,101788.00
2023-05-16T08:11:16.948Z,101775.00
2023-05-16T08:13:45.176Z,101802.00
2023-05-16T08:16:13.524Z,101780.00
2023-05-16T09:16:47.179Z,101843.00
2023-05-16T09:19:16.640Z,101829.00
2023-05-16T09:21:45.334Z,101807.00
2023-05-16T09:24:14.202Z,101811.00
2023-05-16T09:26:46.270Z,101834.00
2023-05-16T09:29:15.743Z,101843.00
2023-05-16T09:31:46.176Z,101845.00
2023-05-16T09:34:14.837Z,101851.00
2023-05-16T09:36:43.973Z,101822.00
2023-05-16T09:39:16.993Z,101823.00
2023-05-16T09:41:46.033Z,101823.00
2023-05-16T09:44:14.718Z,101822.00
2023-05-16T09:46:45.315Z,101843.00
2023-05-16T09:49:14.214Z,101849.00
2023-05-16T09:51:43.238Z,101791.00
2023-05-16T09:54:12.159Z,101800.00
2023-05-16T09:56:51.636Z,101834.00
2023-05-16T09:59:20.049Z,101818.00
2023-05-16T10:01:52.374Z,101829.00
2023-05-16T10:04:20.958Z,101832.00
2023-05-16T10:06:52.434Z,101801.00
2023-05-16T10:09:23.064Z,101843.00
2023-05-16T10:11:53.875Z,101836.00
2023-05-16T10:14:24.032Z,101849.00
2023-05-16T10:16:55.132Z,101831.00
2023-05-16T10:19:30.070Z,101845.00
2023-05-16T10:22:02.439Z,101861.00
2023-05-16T10:24:38.765Z,101850.00
2023-05-16T10:27:07.831Z,101841.00
2023-05-16T10:29:46.574Z,101808.00
2023-05-16T10:32:25.840Z,101848.00
2023-05-16T10:34:56.064Z,101830.00
2023-05-16T10:37:29.023Z,101847.00
2023-05-16T10:39:58.914Z,101859.00
2023-05-16T10:42:27.766Z,101829.00
2023-05-16T10:45:05.968Z,101838.00
2023-05-16T10:47:36.747Z,101843.00
2023-05-16T10:50:05.949Z,101835.00
2023-05-16T10:52:37.534Z,101793.00
2023-05-16T10:55:07.039Z,101824.00
2023-05-16T10:57:36.734Z,101808.00
2023-05-16T11:00:12.945Z,101844.00
2023-05-16T11:02:43.797Z,101826.00
2023-05-16T11:05:20.149Z,101845.00
2023-05-16T11:08:05.953Z,101857.00
2023-05-16T11:10:34.721Z,101861.00
2023-05-16T11:13:09.257Z,101848.00
2023-05-16T11:15:38.288Z,101820.00
2023-05-16T11:18:10.663Z,101849.00
2023-05-16T11:20:41.309Z,101799.00
2023-05-16T11:23:24.814Z,101834.00
2023-05-16T11:26:00.723Z,101819.00
2023-05-16T11:28:30.141Z,101838.00
2023-05-16T11:31:02.665Z,101833.00
2023-05-16T11:33:38.928Z,101837.00
2023-05-16T11:36:16.234Z,101839.00
2023-05-16T11:38:46.168Z,101824.00
2023-05-16T11:41:17.722Z,101829.00
2023-05-16T11:43:49.569Z,101822.00
2023-05-16T11:46:18.453Z,101845.00
2023-05-16T11:48:48.563Z,101825.00
2023-05-16T11:51:20.955Z,101824.00
2023-05-16T11:53:51.137Z,101841.00
2023-05-16T11:56:19.869Z,101838.00
2023-05-16T11:58:48.796Z,101838.00
2023-05-16T12:01:17.590Z,101843.00
2023-05-16T12:03:56.784Z,101845.00
2023-05-16T12:06:29.430Z,101852.00
2023-05-16T12:08:59.370Z,101838.00
2023-05-16T12:11:34.692Z,101838.00
2023-05-16T12:14:04.079Z,101865.00
2023-05-16T12:16:33.205Z,101852.00
2023-05-16T12:19:07.890Z,101853.00
2023-05-16T12:21:40.935Z,101881.00
2023-05-16T12:24:15.199Z,101865.00
2023-05-16T12:26:44.687Z,101861.00
2023-05-16T12:29:13.595Z,101849.00
2023-05-16T12:31:43.181Z,101870.00
2023-05-16T12:34:23.518Z,101878.00
2023-05-16T12:36:57.930Z,101884.00
2023-05-16T12:39:26.416Z,101861.00
2023-05-16T12:41:58.169Z,101882.00
2023-05-16T12:44:32.576Z,101873.00
2023-05-16T12:47:01.313Z,101877.00
2023-05-16T12:49:31.239Z,101881.00
2023-05-16T12:52:05.968Z,101851.00
2023-05-16T12:54:34.804Z,101816.00
2023-05-16T12:57:05.136Z,101884.00
2023-05-16T12:59:33.878Z,101884.00
2023-05-16T13:02:04.571Z,101882.00
2023-05-16T13:04:35.077Z,101840.00
2023-05-16T13:07:04.682Z,101829.00
2023-05-16T13:09:33.277Z,101873.00
2023-05-16T13:12:01.950Z,101846.00
2023-05-16T13:14:30.379Z,101835.00
2023-05-16T13:16:58.917Z,101880.00
2023-05-16T13:19:27.475Z,101869.00
2023-05-16T13:21:57.341Z,101877.00
2023-05-16T13:24:25.693Z,101856.00
2023-05-16T13:26:54.155Z,101877.00
2023-05-16T13:29:22.818Z,101884.00
2023-05-16T13:31:51.586Z,101860.00
2023-05-16T13:34:20.203Z,101853.00
2023-05-16T13:36:54.471Z,101870.00
2023-05-16T13:39:26.784Z,101887.00
2023-05-16T13:41:58.326Z,101889.00
2023-05-16T13:44:27.365Z,101851.00
2023-05-16T13:46:58.784Z,101877.00
2023-05-16T13:49:27.743Z,101848.00
2023-05-16T13:52:04.742Z,101886.00
2023-05-16T13:54:34.882Z,101880.00
2023-05-16T13:57:03.592Z,101892.00
2023-05-16T14:00:03.496Z,101789.00
2023-05-16T14:02:21.462Z,101879.00
2023-05-16T14:04:50.140Z,101870.00
2023-05-16T14:07:18.916Z,101865.00
2023-05-16T14:09:49.205Z,101865.00
2023-05-16T14:12:17.829Z,101861.00
2023-05-16T14:14:46.189Z,101852.00
2023-05-16T14:17:14.790Z,101869.00
2023-05-16T14:19:43.376Z,101871.00
2023-05-16T14:22:12.488Z,101902.00
2023-05-16T14:24:41.175Z,101890.00
2023-05-16T14:27:11.643Z,101886.00
2023-05-16T14:29:40.124Z,101881.00
2023-05-16T14:32:11.091Z,101905.00
2023-05-16T14:34:42.708Z,101895.00
2023-05-16T14:37:34.961Z,101900.00
2023-05-16T14:40:05.319Z,101921.00
2023-05-16T14:42:35.425Z,101901.00
2023-05-16T14:45:04.024Z,101921.00
2023-05-16T14:47:32.515Z,101922.00
2023-05-16T14:50:01.334Z,101906.00
2023-05-16T14:52:29.906Z,101915.00
2023-05-16T14:54:58.560Z,101922.00
2023-05-16T14:57:26.982Z,101906.00
2023-05-16T14:59:56.942Z,101926.00
2023-05-16T15:02:27.010Z,101919.00
2023-05-16T15:04:55.796Z,101905.00
2023-05-16T15:07:24.598Z,101876.00
2023-05-16T15:09:52.949Z,101881.00
2023-05-16T15:12:21.759Z,101888.00
2023-05-16T15:14:50.405Z,101902.00
2023-05-16T15:17:20.869Z,101911.00
2023-05-16T15:19:50.463Z,101928.00
2023-05-16T15:22:18.872Z,101911.00
2023-05-16T15:24:47.386Z,101923.00
2023-05-16T15:27:16.773Z,101931.00
2023-05-16T15:29:45.465Z,101908.00
2023-05-16T15:32:14.543Z,101918.00
2023-05-16T15:34:44.572Z,101923.00
2023-05-16T15:37:13.176Z,101925.00
2023-05-16T15:39:42.343Z,101909.00
2023-05-16T15:42:11.554Z,101925.00
2023-05-16T15:44:41.744Z,101908.00
2023-05-16T15:47:10.730Z,101926.00
2023-05-16T15:49:39.420Z,101941.00
2023-05-16T15:52:09.717Z,101922.00
2023-05-16T15:54:38.546Z,101924.00
2023-05-16T15:57:07.626Z,101950.00
2023-05-16T15:59:36.254Z,101931.00
2023-05-16T16:02:05.561Z,101941.00
2023-05-16T16:04:33.921Z,101943.00
2023-05-16T16:07:03.018Z,101935.00
2023-05-16T16:09:32.799Z,101931.00
2023-05-16T16:12:01.298Z,101938.00
2023-05-16T16:14:29.872Z,101920.00
2023-05-16T16:17:01.112Z,101956.00
2023-05-16T16:19:29.730Z,101964.00
2023-05-16T16:21:58.477Z,101949.00
2023-05-16T16:24:26.940Z,101927.00
2023-05-16T16:26:57.694Z,101910.00
2023-05-16T16:29:26.540Z,101958.00
2023-05-16T16:31:55.109Z,101954.00
2023-05-16T16:34:23.591Z,101957.00
2023-05-16T16:36:52.090Z,101904.00
2023-05-16T16:39:20.994Z,101951.00
2023-05-16T16:41:49.937Z,101955.00
2023-05-16T16:44:21.076Z,101986.00
2023-05-16T16:46:49.873Z,101979.00
2023-05-16T16:49:19.235Z,101987.00
2023-05-16T16:51:47.755Z,101991.00
2023-05-16T16:54:16.128Z,101995.00
2023-05-16T16:56:44.386Z,101953.00
2023-05-16T16:59:12.749Z,101965.00
2023-05-16T17:01:42.763Z,101965.00
2023-05-16T17:04:11.129Z,101941.00
2023-05-16T17:06:39.412Z,101959.00
2023-05-16T17:09:13.625Z,102001.00
2023-05-16T17:11:42.323Z,101963.00
2023-05-16T17:14:11.173Z,101995.00
2023-05-16T17:16:41.803Z,101987.00
2023-05-16T17:19:11.305Z,102000.00
2023-05-16T17:21:40.683Z,101987.00
2023-05-16T17:24:09.637Z,101986.00
2023-05-16T17:26:38.277Z,101977.00
2023-05-16T17:29:07.034Z,102013.00
2023-05-16T17:31:35.495Z,101998.00
2023-05-16T17:34:05.342Z,101995.00
2023-05-16T17:36:34.693Z,102008.00
2023-05-16T17:39:07.868Z,101999.00
2023-05-16T17:41:36.306Z,102005.00
2023-05-16T17:44:06.861Z,101995.00
2023-05-16T17:46:38.272Z,102021.00
2023-05-16T17:49:08.174Z,101988.00
2023-05-16T17:51:48.480Z,101972.00
2023-05-16T17:54:18.647Z,101996.00
2023-05-16T17:56:47.476Z,102004.00
2023-05-16T17:59:16.233Z,102014.00
2023-05-16T18:01:44.809Z,102023.00
2023-05-16T18:04:14.821Z,101980.00
2023-05-16T18:06:44.292Z,102014.00
2023-05-16T18:09:16.472Z,102003.00
2023-05-16T18:11:47.335Z,101998.00
2023-05-16T18:14:16.103Z,101986.00
2023-05-16T18:16:47.764Z,102033.00
2023-05-16T18:19:19.544Z,102033.00
2023-05-16T18:21:54.008Z,102028.00
2023-05-16T18:24:24.923Z,102029.00
2023-05-16T18:26:55.398Z,102035.00
2023-05-16T18:29:27.841Z,102037.00
2023-05-16T18:32:01.336Z,102009.00
2023-05-16T18:34:34.476Z,102021.00
2023-05-16T18:37:02.994Z,102005.00
2023-05-16T18:39:31.856Z,102007.00
2023-05-16T18:42:00.577Z,102031.00
2023-05-16T18:44:29.369Z,102024.00
2023-05-16T18:46:58.933Z,102011.00
2023-05-16T18:49:27.604Z,102040.00
2023-05-16T18:51:57.875Z,102044.00
2023-05-16T18:54:26.381Z,102030.00
2023-05-16T18:56:54.672Z,102024.00
2023-05-16T18:59:23.000Z,102024.00
2023-05-16T19:01:51.265Z,102034.00
2023-05-16T19:04:19.625Z,102023.00
2023-05-16T19:06:48.817Z,101984.00
2023-05-16T19:09:18.850Z,102001.00
2023-05-16T19:11:47.858Z,102026.00
2023-05-16T19:14:16.084Z,102018.00
2023-05-16T19:16:44.395Z,102039.00
2023-05-16T19:19:12.730Z,102015.00
2023-05-16T19:21:41.124Z,102044.00
2023-05-16T19:24:10.605Z,102048.00
2023-05-16T19:26:40.914Z,102055.00
2023-05-16T19:29:10.728Z,102031.00
2023-05-16T19:31:39.121Z,102021.00
2023-05-16T19:34:08.363Z,102023.00
2023-05-16T19:36:38.608Z,102061.00
2023-05-16T19:39:11.769Z,102057.00
2023-05-16T19:41:43.707Z,102090.00
2023-05-16T19:44:13.984Z,102059.00
2023-05-16T19:46:42.364Z,102039.00
2023-05-16T19:49:11.827Z,102056.00
2023-05-16T19:51:42.243Z,102078.00
2023-05-16T19:54:11.714Z,102069.00
2023-05-16T19:56:41.629Z,102066.00
2023-05-16T19:59:17.006Z,102065.00
2023-05-16T20:01:46.845Z,102068.00
2023-05-16T20:04:15.686Z,102074.00
2023-05-16T20:06:44.910Z,102090.00
2023-05-16T20:09:15.182Z,102079.00
2023-05-16T20:11:47.339Z,102085.00
2023-05-16T20:14:16.520Z,102033.00
2023-05-16T20:16:46.421Z,102076.00
2023-05-16T20:19:17.230Z,102057.00
2023-05-16T20:21:48.228Z,102077.00
2023-05-16T20:24:18.404Z,102045.00
2023-05-16T20:26:50.186Z,102071.00
2023-05-16T20:29:18.775Z,102082.00
2023-05-16T20:31:48.340Z,102084.00
2023-05-16T20:34:17.037Z,102062.00
2023-05-16T20:36:46.472Z,102052.00
2023-05-16T20:39:23.746Z,102073.00
2023-05-16T20:41:55.278Z,102027.00
2023-05-16T20:44:25.173Z,102087.00
2023-05-16T20:46:57.421Z,102066.00
2023-05-16T20:49:27.588Z,102099.00
2023-05-16T20:51:56.211Z,102062.00
2023-05-16T20:54:25.283Z,102078.00
2023-05-16T20:56:56.776Z,102111.00
2023-05-16T20:59:26.426Z,102060.00
2023-05-16T21:48:03.527Z,102116.00
2023-05-16T21:50:34.022Z,102106.00
2023-05-16T21:53:02.283Z,102083.00
2023-05-16T21:55:30.864Z,102086.00
2023-05-16T21:57:59.283Z,102084.00
2023-05-16T22:00:27.962Z,102088.00
2023-05-16T22:02:56.325Z,102105.00
2023-05-16T22:05:25.001Z,102081.00
2023-05-16T22:07:54.904Z,102112.00
2023-05-16T22:10:25.777Z,102126.00
2023-05-16T22:12:54.165Z,102080.00
2023-05-16T22:15:22.420Z,102077.00
2023-05-16T22:17:51.364Z,102097.00
2023-05-16T22:20:21.566Z,102101.00
2023-05-16T22:22:50.884Z,102099.00
2023-05-16T22:25:20.911Z,102114.00
2023-05-16T22:27:49.248Z,102122.00
2023-05-16T22:30:17.750Z,102120.00
2023-05-16T22:32:47.012Z,102139.00
2023-05-16T22:35:16.321Z,102106.00
2023-05-16T22:37:44.630Z,102100.00
2023-05-16T22:40:13.422Z,102105.00
2023-05-16T22:42:43.146Z,102104.00
2023-05-16T22:45:12.283Z,102137.00
2023-05-16T22:47:40.683Z,102135.00
2023-05-16T22:50:09.819Z,102107.00
2023-05-16T22:52:41.193Z,102121.00
2023-05-16T22:55:10.466Z,102090.00
2023-05-16T22:57:38.925Z,102076.00
2023-05-16T23:00:10.846Z,102118.00
2023-05-16T23:02:39.238Z,102131.00
2023-05-16T23:05:09.255Z,102102.00
2023-05-16T23:07:37.567Z,102112.00
2023-05-16T23:10:07.458Z,102125.00
2023-05-16T23:12:35.860Z,102103.00
2023-05-16T23:15:10.534Z,102139.00
2023-05-16T23:17:45.180Z,102061.00
2023-05-16T23:20:14.708Z,102140.00
2023-05-16T23:22:53.047Z,102107.00
2023-05-16T23:25:26.303Z,102093.00
2023-05-16T23:27:58.100Z,102136.00
2023-05-16T23:30:27.959Z,102128.00
2023-05-16T23:32:59.708Z,102081.00
2023-05-16T23:35:30.920Z,102120.00
2023-05-16T23:38:02.892Z,102115.00
2023-05-16T23:40:35.646Z,102084.00
2023-05-16T23:43:04.494Z,102134.00
2023-05-16T23:45:36.739Z,102139.00
2023-05-16T23:48:08.885Z,102112.00
2023-05-16T23:50:39.691Z,102141.00
2023-05-16T23:53:09.690Z,102153.00
2023-05-16T23:55:38.895Z,102132.00
2023-05-16T23:58:10.658Z,102117.00
